Time;durP1;ratioP1;P1;durP2;ratioP2;P2;SDS_P1;SDS_P2;PMS_P1;PMS_P2;Temp;Humidity;BMP_temperature;BMP_pressure;BME280_temperature;BME280_humidity;BME280_pressure;Samples;Min_cycle;Max_cycle;Signal;HPM_P1;HPM_P2
2022/01/05 00:01:35;;;;;;;17.92;12.58;;;;;;;4.38;100.00;98091.88;1771540;81;25431;-73
2022/01/05 00:04:02;;;;;;;19.00;11.80;;;;;;;4.35;100.00;98095.19;1771514;81;25758;-72
2022/01/05 00:06:29;;;;;;;31.77;17.42;;;;;;;4.31;100.00;98092.38;1771615;81;26164;-73
2022/01/05 00:08:55;;;;;;;32.17;17.75;;;;;;;4.25;100.00;98103.79;1771604;81;25609;-73
2022/01/05 00:11:23;;;;;;;29.63;17.55;;;;;;;4.20;100.00;98095.94;1741198;81;27869;-73
2022/01/05 00:13:50;;;;;;;33.98;20.15;;;;;;;4.16;100.00;98104.95;1771755;81;25580;-73
2022/01/05 00:16:16;;;;;;;25.57;15.43;;;;;;;4.11;100.00;98109.91;1771593;81;25547;-73
2022/01/05 00:18:43;;;;;;;39.83;20.50;;;;;;;4.06;100.00;98111.42;1771625;81;25667;-73
2022/01/05 00:21:10;;;;;;;26.45;13.98;;;;;;;4.02;100.00;98109.94;1771712;81;25452;-73
2022/01/05 00:23:37;;;;;;;48.10;23.62;;;;;;;3.97;100.00;98112.78;1771616;81;27440;-73
2022/01/05 00:26:04;;;;;;;36.77;19.10;;;;;;;3.92;100.00;98119.07;1771524;81;25607;-73
2022/01/05 00:28:32;;;;;;;56.33;27.20;;;;;;;3.89;100.00;98122.94;1741504;81;25406;-73
2022/01/05 00:30:59;;;;;;;48.33;23.85;;;;;;;3.84;100.00;98128.45;1771524;81;25622;-72
2022/01/05 00:33:25;;;;;;;57.27;27.67;;;;;;;3.81;100.00;98131.19;1771626;81;25434;-73
2022/01/05 00:35:52;;;;;;;56.48;30.15;;;;;;;3.76;100.00;98126.56;1771590;81;27374;-73
2022/01/05 00:38:19;;;;;;;36.40;19.55;;;;;;;3.73;100.00;98130.67;1771499;81;25438;-73
2022/01/05 00:40:45;;;;;;;25.12;14.05;;;;;;;3.69;100.00;98132.39;1771536;81;25441;-73
2022/01/05 00:43:12;;;;;;;21.70;13.68;;;;;;;3.66;100.00;98149.87;1771448;80;26302;-71
2022/01/05 00:45:39;;;;;;;25.08;16.77;;;;;;;3.63;100.00;98155.84;1771632;81;25537;-71
2022/01/05 00:48:06;;;;;;;18.25;12.60;;;;;;;3.60;100.00;98144.98;1771543;81;27324;-72
2022/01/05 00:50:32;;;;;;;16.42;11.12;;;;;;;3.57;100.00;98144.27;1771714;81;25605;-72
2022/01/05 00:53:00;;;;;;;24.23;15.35;;;;;;;3.54;100.00;98141.14;1745624;81;25539;-72
2022/01/05 00:55:28;;;;;;;23.05;14.03;;;;;;;3.51;100.00;98148.44;1771697;81;25710;-72
2022/01/05 00:57:55;;;;;;;23.87;14.87;;;;;;;3.51;100.00;98151.67;1771809;81;25634;-72
2022/01/05 01:00:22;;;;;;;22.75;12.55;;;;;;;3.47;100.00;98155.50;1771733;81;27312;-72
2022/01/05 01:02:49;;;;;;;24.30;15.50;;;;;;;3.45;100.00;98154.26;1771634;81;25470;-72
2022/01/05 01:05:15;;;;;;;23.60;14.83;;;;;;;3.45;100.00;98155.03;1771730;81;25610;-72
2022/01/05 01:07:44;;;;;;;14.50;9.15;;;;;;;3.46;100.00;98155.84;1771700;81;25647;-71
2022/01/05 01:10:12;;;;;;;13.80;8.78;;;;;;;3.46;100.00;98159.84;1771749;81;25628;-71
2022/01/05 01:12:38;;;;;;;14.85;9.30;;;;;;;3.49;100.00;98160.53;1771687;81;27476;-71
2022/01/05 01:15:08;;;;;;;14.93;8.43;;;;;;;3.50;100.00;98161.56;1771647;81;25437;-73
2022/01/05 01:17:35;;;;;;;12.33;7.78;;;;;;;3.53;100.00;98156.93;1771699;81;25210;-73
2022/01/05 01:20:04;;;;;;;14.45;7.53;;;;;;;3.57;100.00;98157.08;1771709;81;25622;-73
2022/01/05 01:22:32;;;;;;;15.90;8.48;;;;;;;3.60;100.00;98161.81;1771793;81;25391;-72
2022/01/05 01:24:59;;;;;;;21.00;11.90;;;;;;;3.63;100.00;98170.54;1771739;81;27964;-72
2022/01/05 01:27:26;;;;;;;20.48;11.12;;;;;;;3.64;100.00;98173.43;1745259;81;25722;-72
2022/01/05 01:29:52;;;;;;;25.25;14.78;;;;;;;3.66;100.00;98177.94;1771724;81;25453;-72
2022/01/05 01:32:19;;;;;;;17.85;11.65;;;;;;;3.69;100.00;98167.15;1745431;81;25719;-72
2022/01/05 01:34:45;;;;;;;21.85;13.50;;;;;;;3.72;100.00;98175.89;1771746;81;25490;-72
2022/01/05 01:37:11;;;;;;;17.82;10.78;;;;;;;3.74;100.00;98181.14;1745371;81;27850;-72
2022/01/05 01:39:38;;;;;;;23.15;11.97;;;;;;;3.76;100.00;98183.50;1771647;81;25603;-72
2022/01/05 01:42:04;;;;;;;16.40;10.60;;;;;;;3.79;100.00;98186.89;1771704;81;25552;-72
2022/01/05 01:44:32;;;;;;;18.07;9.68;;;;;;;3.82;100.00;98188.16;1774942;79;25829;-72
2022/01/05 01:46:58;;;;;;;16.27;11.08;;;;;;;3.85;100.00;98190.21;1775286;80;25610;-72
2022/01/05 01:49:25;;;;;;;20.05;11.08;;;;;;;3.88;100.00;98187.69;1775238;80;27083;-72
2022/01/05 01:51:51;;;;;;;20.97;10.60;;;;;;;3.91;100.00;98190.27;1775106;80;25590;-73
2022/01/05 01:54:19;;;;;;;19.82;10.90;;;;;;;3.94;100.00;98192.31;1775251;80;25377;-72
2022/01/05 01:56:47;;;;;;;20.12;11.30;;;;;;;3.97;100.00;98195.70;1775204;80;26161;-72
2022/01/05 01:59:14;;;;;;;23.80;13.98;;;;;;;4.01;100.00;98205.22;1775278;80;25460;-71
2022/01/05 02:01:41;;;;;;;21.80;13.22;;;;;;;4.04;100.00;98213.95;1775171;80;27380;-72
2022/01/05 02:04:08;;;;;;;25.57;15.15;;;;;;;4.06;100.00;98202.37;1775087;80;25552;-71
2022/01/05 02:06:34;;;;;;;19.65;11.75;;;;;;;4.10;100.00;98207.32;1775236;80;25553;-71
2022/01/05 02:09:01;;;;;;;17.10;9.45;;;;;;;4.12;100.00;98209.16;1748630;80;25657;-71
2022/01/05 02:11:28;;;;;;;18.48;10.13;;;;;;;4.15;100.00;98211.17;1775230;80;25456;-71
2022/01/05 02:13:54;;;;;;;20.27;10.08;;;;;;;4.19;100.00;98208.64;1775265;80;27875;-72
2022/01/05 02:16:29;;;;;;;17.95;10.85;;;;;;;4.22;100.00;98206.67;1748413;80;25571;-72
2022/01/05 02:18:59;;;;;;;18.85;10.68;;;;;;;4.24;100.00;98210.63;1774135;80;25684;-72
2022/01/05 02:21:33;;;;;;;22.02;11.90;;;;;;;4.27;100.00;98218.02;1775226;80;25633;-72
2022/01/05 02:24:02;;;;;;;23.27;11.63;;;;;;;4.30;100.00;98230.74;1775266;80;25626;-72
2022/01/05 02:26:28;;;;;;;24.45;12.70;;;;;;;4.31;100.00;98230.21;1775237;80;27940;-72
2022/01/05 02:28:55;;;;;;;23.18;12.13;;;;;;;4.34;100.00;98231.45;1775132;80;25779;-72
2022/01/05 02:31:22;;;;;;;23.10;12.68;;;;;;;4.38;100.00;98229.73;1748601;80;25654;-72
2022/01/05 02:33:48;;;;;;;22.60;13.08;;;;;;;4.39;100.00;98228.08;1775195;80;25703;-72
2022/01/05 02:36:19;;;;;;;21.37;12.33;;;;;;;4.42;100.00;98211.92;1775246;80;25469;-72
2022/01/05 02:38:43;;;;;;;26.70;13.55;;;;;;;4.44;100.00;98217.20;1775241;80;28019;-72
2022/01/05 02:41:12;;;;;;;21.57;12.58;;;;;;;4.47;100.00;98217.10;1748518;80;25612;-72
2022/01/05 02:43:41;;;;;;;26.73;13.78;;;;;;;4.48;100.00;98220.80;1773654;80;25447;-72
2022/01/05 02:46:18;;;;;;;27.73;14.38;;;;;;;4.52;100.00;98228.98;1771771;81;25623;-72
2022/01/05 02:48:47;;;;;;;25.60;14.78;;;;;;;4.54;100.00;98234.80;1771668;81;25557;-71
2022/01/05 02:51:14;;;;;;;26.93;14.65;;;;;;;4.55;100.00;98241.73;1771925;81;27414;-72
2022/01/05 02:53:41;;;;;;;28.40;15.15;;;;;;;4.56;100.00;98237.16;1771565;81;25750;-72
2022/01/05 02:56:08;;;;;;;29.72;15.28;;;;;;;4.58;100.00;98246.45;1771662;81;25461;-72
2022/01/05 02:58:35;;;;;;;29.35;15.65;;;;;;;4.59;100.00;98247.23;1771592;81;25636;-72
2022/01/05 03:01:02;;;;;;;29.20;15.95;;;;;;;4.60;100.00;98243.47;1771741;81;25627;-72
2022/01/05 03:03:29;;;;;;;33.67;16.70;;;;;;;4.60;100.00;98250.94;1771751;81;27896;-72
2022/01/05 03:05:55;;;;;;;36.73;17.27;;;;;;;4.61;100.00;98247.70;1771652;81;25456;-72
2022/01/05 03:08:22;;;;;;;34.25;17.15;;;;;;;4.63;100.00;98260.20;1771701;81;25535;-72
2022/01/05 03:10:49;;;;;;;36.50;17.65;;;;;;;4.64;100.00;98268.48;1771691;81;25797;-72
2022/01/05 03:13:16;;;;;;;33.75;17.20;;;;;;;4.65;100.00;98259.36;1771646;81;25385;-72
2022/01/05 03:15:42;;;;;;;33.23;17.57;;;;;;;4.66;100.00;98258.23;1771608;81;27324;-72
2022/01/05 03:18:09;;;;;;;38.50;18.42;;;;;;;4.67;100.00;98262.50;1771524;81;25423;-72
2022/01/05 03:20:35;;;;;;;33.92;17.35;;;;;;;4.68;100.00;98265.39;1771589;81;25639;-72
2022/01/05 03:23:04;;;;;;;34.40;18.35;;;;;;;4.69;100.00;98261.63;1771555;81;26376;-72
2022/01/05 03:25:31;;;;;;;35.90;17.27;;;;;;;4.71;100.00;98261.31;1771668;81;25582;-72
2022/01/05 03:27:58;;;;;;;35.45;18.82;;;;;;;4.73;100.00;98273.81;1771586;81;27451;-72
2022/01/05 03:30:28;;;;;;;38.63;18.67;;;;;;;4.75;100.00;98267.05;1771524;81;25567;-72
2022/01/05 03:35:23;;;;;;;34.00;18.10;;;;;;;4.77;100.00;98269.41;1771527;81;26378;-72
2022/01/05 03:37:50;;;;;;;34.67;17.95;;;;;;;4.79;100.00;98269.31;1741142;81;25595;-72
2022/01/05 03:40:16;;;;;;;38.25;19.07;;;;;;;4.81;100.00;98265.75;1771570;81;27345;-72
2022/01/05 03:42:43;;;;;;;36.60;19.23;;;;;;;4.82;100.00;98249.93;1771453;81;25619;-72
2022/01/05 03:45:10;;;;;;;34.98;18.48;;;;;;;4.83;100.00;98248.80;1771525;80;25548;-72
2022/01/05 03:47:37;;;;;;;30.97;18.00;;;;;;;4.84;100.00;98242.35;1771524;81;25381;-72
2022/01/05 03:50:06;;;;;;;33.30;19.07;;;;;;;4.85;100.00;98243.94;1771623;81;25462;-72
2022/01/05 03:52:33;;;;;;;35.98;18.17;;;;;;;4.88;100.00;98243.05;1771524;81;27337;-72
2022/01/05 03:55:00;;;;;;;33.73;18.48;;;;;;;4.90;100.00;98234.14;1771518;81;25588;-73
2022/01/05 03:57:28;;;;;;;35.05;18.32;;;;;;;4.91;100.00;98240.52;1771577;81;25563;-72
2022/01/05 03:59:54;;;;;;;33.53;19.52;;;;;;;4.94;100.00;98247.11;1771514;81;25720;-72
2022/01/05 04:02:21;;;;;;;34.83;19.67;;;;;;;4.93;100.00;98250.35;1745482;81;25636;-72
2022/01/05 04:04:48;;;;;;;34.95;19.90;;;;;;;4.96;100.00;98250.28;1771558;81;27592;-72
2022/01/05 04:07:16;;;;;;;35.05;18.85;;;;;;;4.99;100.00;98261.70;1771519;81;25694;-73
2022/01/05 04:09:42;;;;;;;33.25;19.37;;;;;;;4.97;100.00;98255.32;1745623;81;25492;-73
2022/01/05 04:12:11;;;;;;;33.38;19.17;;;;;;;4.99;100.00;98265.16;1771512;81;25641;-73
2022/01/05 04:14:37;;;;;;;30.45;18.27;;;;;;;5.00;100.00;98264.59;1771562;81;25413;-72
2022/01/05 04:17:04;;;;;;;30.65;19.42;;;;;;;4.98;100.00;98260.89;1771616;81;28043;-72
2022/01/05 04:19:35;;;;;;;33.73;19.12;;;;;;;4.98;100.00;98258.78;1745533;81;25588;-72
2022/01/05 04:22:02;;;;;;;30.90;18.42;;;;;;;4.98;100.00;98256.88;1771683;81;25453;-72
2022/01/05 04:24:29;;;;;;;33.70;19.42;;;;;;;4.97;100.00;98255.32;1771556;81;26244;-72
2022/01/05 04:26:55;;;;;;;30.82;19.02;;;;;;;4.97;100.00;98253.17;1771647;81;25674;-72
2022/01/05 04:29:22;;;;;;;34.95;19.05;;;;;;;4.96;100.00;98255.08;1771522;81;27382;-72
2022/01/05 04:31:50;;;;;;;32.25;18.60;;;;;;;4.95;100.00;98250.81;1745268;81;25437;-72
2022/01/05 04:34:18;;;;;;;32.78;19.10;;;;;;;4.93;100.00;98240.98;1745187;81;25574;-72
2022/01/05 04:36:45;;;;;;;30.65;18.87;;;;;;;4.89;100.00;98249.44;1771540;81;26164;-72
2022/01/05 04:39:12;;;;;;;34.88;18.85;;;;;;;4.86;100.00;98248.73;1771581;81;25634;-72
2022/01/05 04:41:38;;;;;;;31.45;18.10;;;;;;;4.85;100.00;98250.63;1771571;81;27333;-72
2022/01/05 04:44:05;;;;;;;36.80;19.57;;;;;;;4.84;100.00;98257.65;1771365;80;25700;-71
2022/01/05 04:46:32;;;;;;;33.40;18.65;;;;;;;4.82;100.00;98273.27;1771570;81;25472;-71
2022/01/05 04:48:59;;;;;;;32.38;18.55;;;;;;;4.78;100.00;98285.70;1771542;81;25613;-71
2022/01/05 04:51:26;;;;;;;29.63;17.73;;;;;;;4.76;100.00;98278.55;1771586;81;25411;-71
2022/01/05 04:53:52;;;;;;;30.35;18.37;;;;;;;4.75;100.00;98272.94;1771496;81;28085;-71
2022/01/05 04:56:19;;;;;;;30.23;18.48;;;;;;;4.72;100.00;98277.06;1771431;81;25441;-72
2022/01/05 04:58:45;;;;;;;30.97;18.27;;;;;;;4.72;100.00;98285.66;1745493;81;25405;-72
2022/01/05 05:01:12;;;;;;;31.82;19.57;;;;;;;4.71;100.00;98278.16;1771559;81;25681;-72
2022/01/05 05:03:39;;;;;;;31.05;19.05;;;;;;;4.71;100.00;98279.49;1745287;81;25467;-72
2022/01/05 05:06:05;;;;;;;35.00;19.42;;;;;;;4.72;100.00;98291.02;1771541;81;27343;-72
2022/01/05 05:08:31;;;;;;;32.63;19.80;;;;;;;4.73;100.00;98296.58;1771491;81;25623;-72
2022/01/05 05:10:58;;;;;;;35.90;19.55;;;;;;;4.73;100.00;98293.34;1771575;81;25575;-72
2022/01/05 05:13:25;;;;;;;33.48;18.45;;;;;;;4.73;100.00;98283.97;1771466;81;25709;-72
2022/01/05 05:15:51;;;;;;;34.13;20.45;;;;;;;4.72;100.00;98278.96;1771567;81;25537;-72
2022/01/05 05:18:18;;;;;;;34.88;20.60;;;;;;;4.76;100.00;98277.98;1771555;81;27984;-72
2022/01/05 05:20:44;;;;;;;35.65;21.50;;;;;;;4.78;100.00;98275.77;1771457;81;25582;-72
2022/01/05 05:23:11;;;;;;;33.92;21.40;;;;;;;4.82;100.00;98266.56;1771629;81;25429;-71
2022/01/05 05:25:37;;;;;;;33.10;19.52;;;;;;;4.84;100.00;98271.81;1771471;81;25624;-71
2022/01/05 05:28:04;;;;;;;31.10;19.62;;;;;;;4.85;100.00;98275.28;1745360;81;25684;-70
2022/01/05 05:30:31;;;;;;;33.25;19.37;;;;;;;4.85;100.00;98281.44;1771492;81;27424;-71
2022/01/05 05:32:58;;;;;;;27.65;17.42;;;;;;;4.85;100.00;98292.16;1771446;81;25609;-72
2022/01/05 05:35:26;;;;;;;28.87;18.42;;;;;;;4.85;100.00;98304.74;1771628;81;25551;-72
2022/01/05 05:37:53;;;;;;;28.20;19.05;;;;;;;4.86;100.00;98318.38;1771604;81;25678;-70
2022/01/05 05:40:19;;;;;;;32.38;19.27;;;;;;;4.87;100.00;98326.66;1771741;81;25390;-70
2022/01/05 05:42:46;;;;;;;28.27;18.23;;;;;;;4.91;100.00;98324.13;1771625;81;27321;-72
2022/01/05 05:45:12;;;;;;;33.08;20.68;;;;;;;4.92;100.00;98318.98;1771549;80;25536;-72
2022/01/05 05:47:39;;;;;;;28.23;18.82;;;;;;;4.91;100.00;98326.25;1771674;81;25450;-72
2022/01/05 05:50:08;;;;;;;32.90;20.43;;;;;;;4.92;100.00;98323.81;1745398;81;25716;-71
2022/01/05 05:52:35;;;;;;;32.07;19.17;;;;;;;4.93;100.00;98337.98;1771954;81;25374;-71
2022/01/05 05:55:03;;;;;;;32.00;20.12;;;;;;;4.93;100.00;98338.77;1771709;81;27416;-72
2022/01/05 05:57:29;;;;;;;35.35;20.35;;;;;;;4.96;100.00;98348.86;1771555;81;25610;-71
2022/01/05 05:59:57;;;;;;;34.20;21.73;;;;;;;4.96;100.00;98355.55;1771646;81;25559;-72
2022/01/05 06:02:23;;;;;;;35.05;20.95;;;;;;;4.96;100.00;98354.77;1771616;81;25590;-72
2022/01/05 06:04:50;;;;;;;33.35;19.85;;;;;;;4.97;100.00;98363.84;1771729;81;25615;-72
2022/01/05 06:07:16;;;;;;;32.53;20.30;;;;;;;4.99;100.00;98356.82;1771634;81;27312;-72
2022/01/05 06:09:43;;;;;;;29.18;18.62;;;;;;;4.98;100.00;98356.02;1771578;81;25468;-71
2022/01/05 06:12:10;;;;;;;31.60;19.15;;;;;;;4.98;100.00;98349.31;1771673;81;25619;-72
2022/01/05 06:14:36;;;;;;;31.75;19.25;;;;;;;4.97;100.00;98350.44;1771655;81;25651;-74
2022/01/05 06:17:03;;;;;;;28.83;19.37;;;;;;;4.99;100.00;98359.50;1745478;81;25465;-73
2022/01/05 06:19:30;;;;;;;34.67;20.00;;;;;;;5.00;100.00;98357.04;1771642;81;27380;-72
2022/01/05 06:21:58;;;;;;;33.60;20.95;;;;;;;5.02;100.00;98364.20;1771645;81;25195;-72
2022/01/05 06:24:26;;;;;;;32.13;20.35;;;;;;;5.02;100.00;98373.05;1771684;81;25604;-72
2022/01/05 06:26:52;;;;;;;34.03;20.82;;;;;;;5.07;100.00;98376.65;1771639;81;25659;-71
2022/01/05 06:29:20;;;;;;;30.00;19.30;;;;;;;5.08;100.00;98385.72;1771666;81;25753;-71
2022/01/05 06:31:46;;;;;;;33.58;20.62;;;;;;;5.11;100.00;98377.05;1771703;81;27310;-71
2022/01/05 06:34:13;;;;;;;30.15;20.82;;;;;;;5.12;100.00;98385.30;1771534;81;25369;-71
2022/01/05 06:36:40;;;;;;;32.33;20.17;;;;;;;5.14;100.00;98389.81;1771659;81;25465;-71
2022/01/05 06:39:06;;;;;;;31.05;19.62;;;;;;;5.15;100.00;98394.05;1771636;81;26173;-71
2022/01/05 06:41:33;;;;;;;31.70;20.43;;;;;;;5.14;100.00;98393.02;1771689;81;25604;-71
2022/01/05 06:44:00;;;;;;;27.80;18.77;;;;;;;5.14;100.00;98400.53;1771612;80;27883;-71
2022/01/05 06:46:26;;;;;;;28.25;17.82;;;;;;;5.13;100.00;98398.16;1771445;81;25619;-72
2022/01/05 06:48:53;;;;;;;28.45;17.90;;;;;;;5.11;100.00;98401.16;1771664;81;25598;-72
2022/01/05 06:51:19;;;;;;;22.22;15.85;;;;;;;5.10;100.00;98403.59;1771569;81;25695;-73
2022/01/05 06:53:46;;;;;;;24.32;15.98;;;;;;;5.10;100.00;98394.22;1771598;81;25552;-72
2022/01/05 06:56:12;;;;;;;24.00;15.48;;;;;;;5.09;100.00;98399.89;1771218;80;27442;-72
2022/01/05 06:58:39;;;;;;;25.40;15.53;;;;;;;5.06;100.00;98402.67;1768039;79;25728;-72
2022/01/05 07:01:05;;;;;;;26.65;16.55;;;;;;;5.07;100.00;98403.45;1806550;79;25354;-73
2022/01/05 07:03:32;;;;;;;24.77;14.78;;;;;;;5.05;100.00;98400.52;1804994;78;25679;-71
2022/01/05 07:05:58;;;;;;;25.82;14.90;;;;;;;5.06;100.00;98408.03;1804532;78;25598;-72
2022/01/05 07:08:25;;;;;;;22.67;15.80;;;;;;;5.05;100.00;98402.42;1804657;79;27309;-72
2022/01/05 07:10:51;;;;;;;24.65;15.23;;;;;;;5.05;100.00;98404.55;1804701;79;25514;-72
2022/01/05 07:13:18;;;;;;;25.82;15.35;;;;;;;5.05;100.00;98403.77;1777352;79;25631;-71
2022/01/05 07:15:44;;;;;;;22.93;15.10;;;;;;;5.05;100.00;98414.48;1804251;78;25841;-71
2022/01/05 07:18:11;;;;;;;25.85;16.17;;;;;;;5.04;100.00;98415.61;1812062;78;25467;-71
2022/01/05 07:20:37;;;;;;;22.42;15.25;;;;;;;5.04;100.00;98419.62;1804681;79;27302;-72
2022/01/05 07:23:04;;;;;;;21.33;14.70;;;;;;;5.02;100.00;98399.84;1804699;79;25601;-72
2022/01/05 07:25:30;;;;;;;26.97;15.15;;;;;;;5.03;100.00;98393.92;1804679;79;25647;-72
2022/01/05 07:27:57;;;;;;;23.52;13.78;;;;;;;5.02;100.00;98401.18;1804735;79;26261;-71
2022/01/05 07:30:23;;;;;;;23.50;14.65;;;;;;;5.04;100.00;98398.19;1804770;78;25361;-71
2022/01/05 07:32:50;;;;;;;21.80;14.13;;;;;;;5.06;100.00;98398.65;1804670;79;27190;-71
2022/01/05 07:35:16;;;;;;;20.15;14.15;;;;;;;5.08;100.00;98398.33;1804630;78;25664;-71
2022/01/05 07:37:43;;;;;;;20.00;14.20;;;;;;;5.08;100.00;98396.43;1804563;79;25606;-71
2022/01/05 07:40:11;;;;;;;21.87;14.35;;;;;;;5.10;100.00;98402.81;1804723;79;25746;-71
2022/01/05 07:42:38;;;;;;;21.30;14.40;;;;;;;5.10;100.00;98407.61;1800762;79;25615;-72
2022/01/05 07:45:08;;;;;;;23.42;14.47;;;;;;;5.09;100.00;98410.61;1808783;78;27316;-72
2022/01/05 07:47:34;;;;;;;25.52;15.93;;;;;;;5.09;100.00;98406.06;1817189;79;25612;-72
2022/01/05 07:50:01;;;;;;;18.92;13.48;;;;;;;5.09;100.00;98407.40;1817199;78;25691;-72
2022/01/05 07:52:28;;;;;;;19.42;13.45;;;;;;;5.10;100.00;98406.28;1817233;79;25586;-72
2022/01/05 07:54:54;;;;;;;21.27;13.25;;;;;;;5.09;100.00;98397.21;1817286;79;25623;-72
2022/01/05 07:57:21;;;;;;;20.48;13.80;;;;;;;5.11;100.00;98401.16;1817036;79;27325;-72
2022/01/05 07:59:47;;;;;;;22.77;13.50;;;;;;;5.11;100.00;98403.03;1817129;79;25671;-73
2022/01/05 08:02:14;;;;;;;22.00;14.28;;;;;;;5.10;100.00;98403.59;1817258;79;25403;-73
2022/01/05 08:04:48;;;;;;;18.50;13.58;;;;;;;5.11;100.00;98403.03;1817206;79;25670;-72
2022/01/05 08:07:13;;;;;;;20.52;13.08;;;;;;;5.11;100.00;98403.03;1817261;78;25676;-71
2022/01/05 08:09:39;;;;;;;20.92;12.98;;;;;;;5.12;100.00;98396.02;1817329;78;27375;-71
2022/01/05 08:12:08;;;;;;;19.62;13.03;;;;;;;5.13;99.95;98395.48;1817229;79;25650;-71
2022/01/05 08:14:34;;;;;;;28.98;16.65;;;;;;;5.13;100.00;98398.16;1817378;79;25541;-72
2022/01/05 08:17:01;;;;;;;30.17;17.67;;;;;;;5.14;100.00;98391.68;1817041;79;26163;-72
2022/01/05 08:19:27;;;;;;;24.43;15.43;;;;;;;5.16;100.00;98394.83;1817242;79;25697;-72
2022/01/05 08:21:54;;;;;;;19.10;13.58;;;;;;;5.18;100.00;98392.64;1817171;79;27402;-72
2022/01/05 08:24:20;;;;;;;22.52;14.43;;;;;;;5.19;100.00;98386.15;1817052;78;25688;-72
2022/01/05 08:26:47;;;;;;;21.90;13.48;;;;;;;5.19;100.00;98382.12;1817201;79;25441;-72
2022/01/05 08:29:13;;;;;;;19.12;13.00;;;;;;;5.19;99.98;98380.26;1817194;79;25637;-72
2022/01/05 08:31:40;;;;;;;27.58;15.45;;;;;;;5.21;100.00;98386.08;1817271;79;25453;-72
2022/01/05 08:34:06;;;;;;;20.45;13.55;;;;;;;5.23;100.00;98385.20;1817104;79;27295;-72
2022/01/05 08:36:33;;;;;;;20.30;12.82;;;;;;;5.24;100.00;98389.47;1816995;79;25660;-72
2022/01/05 08:39:00;;;;;;;21.97;13.05;;;;;;;5.28;100.00;98392.83;1796309;79;25625;-72
2022/01/05 08:41:26;;;;;;;21.27;12.68;;;;;;;5.27;100.00;98392.61;1810527;79;25661;-72
2022/01/05 08:43:54;;;;;;;18.32;12.85;;;;;;;5.29;100.00;98386.37;1779670;79;25723;-72
2022/01/05 08:46:22;;;;;;;42.13;23.38;;;;;;;5.31;100.00;98390.85;1804562;79;27325;-72
2022/01/05 08:48:48;;;;;;;23.32;13.50;;;;;;;5.31;100.00;98388.17;1804458;79;25690;-72
2022/01/05 08:51:15;;;;;;;25.75;15.30;;;;;;;5.32;100.00;98393.22;1804643;79;25381;-72
2022/01/05 08:53:41;;;;;;;36.03;21.15;;;;;;;5.33;100.00;98388.62;1804405;79;26165;-72
2022/01/05 08:56:08;;;;;;;42.75;22.20;;;;;;;5.32;100.00;98387.85;1804362;79;25388;-72
2022/01/05 08:58:35;;;;;;;44.63;22.70;;;;;;;5.32;100.00;98391.88;1804614;79;27899;-72
2022/01/05 09:01:01;;;;;;;37.33;19.37;;;;;;;5.31;100.00;98401.58;1804640;79;25650;-72
2022/01/05 09:03:28;;;;;;;34.63;19.32;;;;;;;5.31;100.00;98398.36;1804579;79;25741;-72
2022/01/05 09:05:54;;;;;;;39.05;19.75;;;;;;;5.29;100.00;98400.55;1804451;79;25688;-72
2022/01/05 09:08:21;;;;;;;37.20;21.87;;;;;;;5.31;100.00;98397.02;1804531;79;25646;-71
2022/01/05 09:10:47;;;;;;;38.13;21.05;;;;;;;5.29;100.00;98397.88;1804791;79;27381;-71
2022/01/05 09:13:14;;;;;;;37.38;20.40;;;;;;;5.25;100.00;98402.31;1804629;79;25570;-72
2022/01/05 09:15:41;;;;;;;30.25;18.27;;;;;;;5.24;100.00;98403.41;1804841;79;25640;-71
2022/01/05 09:18:09;;;;;;;30.82;18.98;;;;;;;5.22;100.00;98404.28;1777470;79;26187;-71
2022/01/05 09:20:35;;;;;;;31.62;18.70;;;;;;;5.21;100.00;98401.35;1804699;79;25910;-71
2022/01/05 09:23:02;;;;;;;31.65;18.67;;;;;;;5.19;100.00;98404.38;1804830;79;27400;-71
2022/01/05 09:25:30;;;;;;;29.57;18.82;;;;;;;5.20;100.00;98401.92;1804550;79;25563;-71
2022/01/05 09:27:56;;;;;;;30.05;18.35;;;;;;;5.23;100.00;98405.87;1804626;79;25684;-71
2022/01/05 09:30:23;;;;;;;26.87;17.52;;;;;;;5.21;100.00;98400.02;1777682;79;25673;-71
2022/01/05 09:32:50;;;;;;;32.63;17.35;;;;;;;5.21;100.00;98399.48;1804850;79;25712;-71
2022/01/05 09:35:20;;;;;;;28.62;18.17;;;;;;;5.23;100.00;98390.56;1804788;79;27420;-71
2022/01/05 09:43:05;;;;;;;29.50;17.85;;;;;;;5.25;100.00;98398.29;1804799;79;25650;-72
2022/01/05 09:45:35;;;;;;;29.45;18.65;;;;;;;5.24;100.00;98390.80;1802930;79;25578;-71
2022/01/05 09:48:20;;;;;;;30.02;17.77;;;;;;;5.27;100.00;98392.61;1796333;79;27327;-71
2022/01/05 09:50:58;;;;;;;28.38;18.17;;;;;;;5.26;100.00;98387.81;1796195;79;25709;-73
2022/01/05 09:53:26;;;;;;;30.80;19.27;;;;;;;5.33;100.00;98388.09;1796266;79;25602;-71
2022/01/05 09:55:54;;;;;;;30.37;18.80;;;;;;;5.35;100.00;98393.92;1796148;79;25713;-71
2022/01/05 09:58:23;;;;;;;29.42;19.42;;;;;;;5.36;100.00;98402.20;1774048;79;25573;-71
2022/01/05 10:00:52;;;;;;;28.52;18.15;;;;;;;5.37;100.00;98401.65;1796364;79;27331;-71
2022/01/05 10:03:19;;;;;;;29.70;19.27;;;;;;;5.43;100.00;98404.37;1796241;79;25685;-72
2022/01/05 10:05:45;;;;;;;31.15;18.62;;;;;;;5.43;100.00;98404.37;1796295;79;25385;-71
2022/01/05 10:08:12;;;;;;;27.45;17.90;;;;;;;5.48;100.00;98411.46;1796181;79;25629;-71
2022/01/05 10:10:42;;;;;;;31.95;18.30;;;;;;;5.49;100.00;98405.00;1796567;79;25611;-71
2022/01/05 10:13:09;;;;;;;29.05;17.95;;;;;;;5.51;100.00;98416.19;1796595;79;27370;-72
2022/01/05 10:15:36;;;;;;;27.58;17.50;;;;;;;5.51;100.00;98410.27;1773885;79;25673;-72
2022/01/05 10:18:16;;;;;;;28.38;18.15;;;;;;;5.51;100.00;98399.53;1764751;79;25743;-72
2022/01/05 10:21:05;;;;;;;26.75;16.97;;;;;;;5.53;100.00;98413.41;1742782;82;25825;-72
2022/01/05 10:23:42;;;;;;;28.85;18.17;;;;;;;5.53;100.00;98410.72;1743112;82;25680;-71
2022/01/05 10:26:29;;;;;;;27.27;17.07;;;;;;;5.53;99.95;98412.06;1739003;81;27406;-72
2022/01/05 10:29:09;;;;;;;29.50;17.35;;;;;;;5.55;100.00;98406.38;1738886;81;25625;-71
2022/01/05 10:31:39;;;;;;;26.23;16.73;;;;;;;5.56;100.00;98403.95;1712847;83;25648;-72
2022/01/05 10:34:18;;;;;;;;;;;;;;;5.56;99.93;98399.36;1715253;83;25684;-71
2022/01/05 10:36:53;;;;;;;;;;;;;;;5.58;99.84;98399.04;1715441;83;25753;-72
2022/01/05 10:39:30;;;;;;;26.68;16.80;;;;;;;5.59;99.83;98400.63;1712831;83;27342;-71
2022/01/05 10:41:56;;;;;;;25.82;15.60;;;;;;;5.58;99.66;98402.53;1712944;83;25622;-72
2022/01/05 10:44:24;;;;;;;29.63;17.98;;;;;;;5.59;99.40;98395.27;1694126;84;25492;-72
2022/01/05 10:46:57;;;;;;;29.52;16.50;;;;;;;5.58;99.57;98390.46;1730048;81;26240;-71
2022/01/05 10:49:29;;;;;;;28.35;16.60;;;;;;;5.60;99.73;98392.80;1768669;80;25399;-72
2022/01/05 10:52:00;;;;;;;30.02;18.32;;;;;;;5.63;99.93;98384.67;1768468;81;27938;-71
2022/01/05 10:54:30;;;;;;;27.77;17.55;;;;;;;5.62;99.22;98387.91;1736366;82;25683;-71
2022/01/05 10:57:09;;;;;;;24.77;16.67;;;;;;;5.65;99.42;98385.91;1768446;80;25668;-72
2022/01/05 10:59:44;;;;;;;27.40;16.67;;;;;;;5.66;99.27;98395.54;1768406;80;25672;-71
2022/01/05 11:02:34;;;;;;;29.00;17.45;;;;;;;5.68;99.59;98383.16;1747393;81;25418;-72
2022/01/05 11:05:12;;;;;;;24.23;16.30;;;;;;;5.70;99.61;98387.63;1768491;81;27396;-71
2022/01/05 11:07:42;;;;;;;26.23;16.65;;;;;;;5.73;99.64;98385.65;1768449;81;25642;-71
2022/01/05 11:10:18;;;;;;;25.20;16.93;;;;;;;5.74;99.63;98372.48;1768795;81;32967;-71
2022/01/05 11:12:52;;;;;;;26.80;17.37;;;;;;;5.75;99.34;98370.79;1768515;81;25644;-70
2022/01/05 11:15:31;;;;;;;26.52;17.67;;;;;;;5.76;99.65;98373.72;1717357;82;25421;-70
2022/01/05 11:18:16;;;;;;;;;;;;;;;5.80;99.85;98372.52;1713987;83;28000;-71
2022/01/05 11:21:01;;;;;;;31.95;18.82;;;;;;;5.84;99.96;98368.63;1742508;82;25606;-70
2022/01/05 11:23:30;;;;;;;28.95;18.62;;;;;;;5.85;99.99;98356.23;1742843;82;25572;-71
2022/01/05 11:25:59;;;;;;;30.20;19.15;;;;;;;5.88;100.00;98352.13;1742977;82;25748;-71
2022/01/05 11:28:29;;;;;;;36.95;20.05;;;;;;;5.89;100.00;98350.45;1743054;82;25790;-72
2022/01/05 11:30:57;;;;;;;29.85;18.02;;;;;;;5.91;99.87;98344.20;1743087;82;27340;-70